Betancuria — EAMH — position and weather

sailwx.info

Track history (hours):
 
Tides and Currents Weather Stations Pressure Air Temp Water Temp Dewpoint Dewpoint Depression Visibility Wind Speed Wind Dir Waves Ship Positions

Betancuria

Last reported at 2016-Feb-02 19:33 UTC. Time now 2016-Feb-06 18:33 UTC.
Position N 37°10' E 003°53'.

Length 141 m; draft 4.7 m.

Type: Ship. MMSI: 224471000.

Date/timePositionNaut miles runAvg speedWind from/ knotsBaromVisibWave heightAir tempDewpointWater temp
2016-Feb-02 19:33N 37°10' E 003°53'1110.8
2016-Feb-02 18:33N 37°10' E 003°39'1010.1
2016-Feb-02 17:33N 37°10' E 003°27'10 9.9
2016-Feb-02 16:33N 37°10' E 003°14'1010.1
2016-Feb-02 15:33N 37°07' E 003°02'1010.4
2016-Feb-02 14:33N 37°05' E 002°49'1010.5
2016-Feb-02 13:33N 37°03' E 002°37'1110.7
2016-Feb-02 12:33N 37°00' E 002°24'1211.5
2016-Feb-02 11:33N 36°58' E 002°10'2311.3
2016-Feb-02 09:33N 36°53' E 001°42'1211.7
2016-Feb-02 08:31N 36°51' E 001°27'1412.0
2016-Feb-02 07:21N 36°47' E 001°10'2111.8
2016-Feb-02 05:33N 36°43' E 000°44'1311.6
2016-Feb-02 04:27N 36°41' E 000°28'1011.4
2016-Feb-02 03:33N 36°39' E 000°16'1212.0
2016-Feb-02 02:31N 36°36' E 000°01'1212.0
2016-Feb-02 01:33N 36°34' W 000°13'1212.1
2016-Feb-02 00:33N 36°31' W 000°28'1212.1
2016-Feb-01 23:33N 36°29' W 000°43'21912.0
2016-Feb-01 05:18N 36°00' W 005°12'1114.1
2016-Feb-01 04:33N 35°58' W 005°25'12711.5
2016-Jan-31 17:31N 36°18' W 008°01'1211.3
2016-Jan-31 16:28N 36°21' W 008°15'1211.6
2016-Jan-31 15:28N 36°24' W 008°29'1211.7
2016-Jan-31 14:28N 36°27' W 008°43'1111.2
2016-Jan-31 13:31N 36°30' W 008°55'1211.6
2016-Jan-31 12:31N 36°33' W 009°09'1111.3
2016-Jan-31 11:32N 36°39' W 009°21'1210.8
2016-Jan-31 10:28N 36°47' W 009°31'1111.2
2016-Jan-31 09:28N 36°58' W 009°35'910.1
2016-Jan-31 08:33N 37°07' W 009°38'2211.0
2016-Jan-31 06:33N 37°29' W 009°44'1210.9
2016-Jan-31 05:27N 37°40' W 009°47'1010.9
2016-Jan-31 04:33N 37°50' W 009°49'1110.9
2016-Jan-31 03:33N 38°00' W 009°53'1111.4
2016-Jan-31 02:34N 38°11' W 009°57'1211.5
2016-Jan-31 01:31N 38°23' W 010°01'1111.4
2016-Jan-31 00:33N 38°34' W 010°04'1110.9
2016-Jan-30 23:33N 38°45' W 010°06'1111.2
2016-Jan-30 22:33N 38°56' W 010°05'1111.3
2016-Jan-30 21:33N 39°07' W 010°06'1211.0
2016-Jan-30 20:28N 39°19' W 010°06'1111.7
2016-Jan-30 19:31N 39°30' W 010°06'1111.2
2016-Jan-30 18:31N 39°41' W 010°06'1111.3
2016-Jan-30 17:31N 39°53' W 010°06'1410.6
2016-Jan-30 16:10N 40°07' W 010°06'7 9.9
2016-Jan-30 15:28N 40°14' W 010°06'1212.0
2016-Jan-30 14:28N 40°26' W 010°06'1010.6
2016-Jan-30 13:31N 40°36' W 010°06'1111.1
2016-Jan-30 12:31N 40°47' W 010°06'1110.8
2016-Jan-30 11:28N 40°58' W 010°06'2110.6
2016-Jan-30 09:31N 41°19' W 010°06'1110.6
2016-Jan-30 08:31N 41°29' W 010°06'1010.3
2016-Jan-30 07:31N 41°40' W 010°06'10 9.5
2016-Jan-30 06:31N 41°49' W 010°07'  
Track history (hours):
 
Tides and Currents Weather Stations Pressure Air Temp Water Temp Dewpoint Dewpoint Depression Visibility Wind Speed Wind Dir Waves Ship Positions

Betancuria

Last reported at 2016-Feb-02 19:33 UTC. Time now 2016-Feb-06 18:33 UTC.
Position N 37°10' E 003°53'.

Length 141 m; draft 4.7 m.

Type: Ship. MMSI: 224471000.

Date/timePositionNaut miles runAvg speedWind from/ knotsBaromVisibWave heightAir tempDewpointWater temp
2016-Feb-02 19:33N 37°10' E 003°53'1110.8
2016-Feb-02 18:33N 37°10' E 003°39'1010.1
2016-Feb-02 17:33N 37°10' E 003°27'10 9.9
2016-Feb-02 16:33N 37°10' E 003°14'1010.1
2016-Feb-02 15:33N 37°07' E 003°02'1010.4
2016-Feb-02 14:33N 37°05' E 002°49'1010.5
2016-Feb-02 13:33N 37°03' E 002°37'1110.7
2016-Feb-02 12:33N 37°00' E 002°24'1211.5
2016-Feb-02 11:33N 36°58' E 002°10'2311.3
2016-Feb-02 09:33N 36°53' E 001°42'1211.7
2016-Feb-02 08:31N 36°51' E 001°27'1412.0
2016-Feb-02 07:21N 36°47' E 001°10'2111.8
2016-Feb-02 05:33N 36°43' E 000°44'1311.6
2016-Feb-02 04:27N 36°41' E 000°28'1011.4
2016-Feb-02 03:33N 36°39' E 000°16'1212.0
2016-Feb-02 02:31N 36°36' E 000°01'1212.0
2016-Feb-02 01:33N 36°34' W 000°13'1212.1
2016-Feb-02 00:33N 36°31' W 000°28'1212.1
2016-Feb-01 23:33N 36°29' W 000°43'21912.0
2016-Feb-01 05:18N 36°00' W 005°12'1114.1
2016-Feb-01 04:33N 35°58' W 005°25'12711.5
2016-Jan-31 17:31N 36°18' W 008°01'1211.3
2016-Jan-31 16:28N 36°21' W 008°15'1211.6
2016-Jan-31 15:28N 36°24' W 008°29'1211.7
2016-Jan-31 14:28N 36°27' W 008°43'1111.2
2016-Jan-31 13:31N 36°30' W 008°55'1211.6
2016-Jan-31 12:31N 36°33' W 009°09'1111.3
2016-Jan-31 11:32N 36°39' W 009°21'1210.8
2016-Jan-31 10:28N 36°47' W 009°31'1111.2
2016-Jan-31 09:28N 36°58' W 009°35'910.1
2016-Jan-31 08:33N 37°07' W 009°38'2211.0
2016-Jan-31 06:33N 37°29' W 009°44'1210.9
2016-Jan-31 05:27N 37°40' W 009°47'1010.9
2016-Jan-31 04:33N 37°50' W 009°49'1110.9
2016-Jan-31 03:33N 38°00' W 009°53'1111.4
2016-Jan-31 02:34N 38°11' W 009°57'1211.5
2016-Jan-31 01:31N 38°23' W 010°01'1111.4
2016-Jan-31 00:33N 38°34' W 010°04'1110.9
2016-Jan-30 23:33N 38°45' W 010°06'1111.2
2016-Jan-30 22:33N 38°56' W 010°05'1111.3
2016-Jan-30 21:33N 39°07' W 010°06'1211.0
2016-Jan-30 20:28N 39°19' W 010°06'1111.7
2016-Jan-30 19:31N 39°30' W 010°06'1111.2
2016-Jan-30 18:31N 39°41' W 010°06'1111.3
2016-Jan-30 17:31N 39°53' W 010°06'1410.6
2016-Jan-30 16:10N 40°07' W 010°06'7 9.9
2016-Jan-30 15:28N 40°14' W 010°06'1212.0
2016-Jan-30 14:28N 40°26' W 010°06'1010.6
2016-Jan-30 13:31N 40°36' W 010°06'1111.1
2016-Jan-30 12:31N 40°47' W 010°06'1110.8
2016-Jan-30 11:28N 40°58' W 010°06'2110.6
2016-Jan-30 09:31N 41°19' W 010°06'1110.6
2016-Jan-30 08:31N 41°29' W 010°06'1010.3
2016-Jan-30 07:31N 41°40' W 010°06'10 9.5
2016-Jan-30 06:31N 41°49' W 010°07'  

Dump ship's entire track history